sensor_id;sensor_type;location;lat;lon;timestamp;temperature;humidity
71084;DHT22;58741;52.672;13.548;2022-08-19T00:02:21;20.90;90.70
71084;DHT22;58741;52.672;13.548;2022-08-19T00:04:46;20.90;90.70
71084;DHT22;58741;52.672;13.548;2022-08-19T00:07:15;20.90;90.80
71084;DHT22;58741;52.672;13.548;2022-08-19T00:09:40;20.90;90.80
71084;DHT22;58741;52.672;13.548;2022-08-19T00:12:06;20.90;91.00
71084;DHT22;58741;52.672;13.548;2022-08-19T00:14:32;20.90;91.10
71084;DHT22;58741;52.672;13.548;2022-08-19T00:16:58;20.80;90.80
71084;DHT22;58741;52.672;13.548;2022-08-19T00:19:24;20.80;90.90
71084;DHT22;58741;52.672;13.548;2022-08-19T00:21:51;20.80;91.00
71084;DHT22;58741;52.672;13.548;2022-08-19T00:24:16;20.80;90.80
71084;DHT22;58741;52.672;13.548;2022-08-19T00:26:43;20.80;90.80
71084;DHT22;58741;52.672;13.548;2022-08-19T00:29:11;20.80;90.80
71084;DHT22;58741;52.672;13.548;2022-08-19T00:31:37;20.80;90.80
71084;DHT22;58741;52.672;13.548;2022-08-19T00:34:03;20.80;90.90
71084;DHT22;58741;52.672;13.548;2022-08-19T00:36:29;20.80;90.70
71084;DHT22;58741;52.672;13.548;2022-08-19T00:38:55;20.80;90.70
71084;DHT22;58741;52.672;13.548;2022-08-19T00:41:23;20.80;90.70
71084;DHT22;58741;52.672;13.548;2022-08-19T00:44:02;20.80;90.80
71084;DHT22;58741;52.672;13.548;2022-08-19T00:46:28;20.80;90.80
71084;DHT22;58741;52.672;13.548;2022-08-19T00:48:55;20.80;90.60
71084;DHT22;58741;52.672;13.548;2022-08-19T00:51:23;20.80;90.70
71084;DHT22;58741;52.672;13.548;2022-08-19T00:53:50;20.80;90.50
71084;DHT22;58741;52.672;13.548;2022-08-19T00:56:15;20.80;90.50
71084;DHT22;58741;52.672;13.548;2022-08-19T00:58:42;20.80;90.50
71084;DHT22;58741;52.672;13.548;2022-08-19T01:01:08;20.80;90.60
71084;DHT22;58741;52.672;13.548;2022-08-19T01:03:34;20.80;90.80
71084;DHT22;58741;52.672;13.548;2022-08-19T01:05:59;20.80;90.70
71084;DHT22;58741;52.672;13.548;2022-08-19T01:08:25;20.80;90.70
71084;DHT22;58741;52.672;13.548;2022-08-19T01:10:56;20.80;90.70
71084;DHT22;58741;52.672;13.548;2022-08-19T01:13:25;20.80;90.80
71084;DHT22;58741;52.672;13.548;2022-08-19T01:16:00;20.80;90.80
71084;DHT22;58741;52.672;13.548;2022-08-19T01:18:27;20.80;90.90
71084;DHT22;58741;52.672;13.548;2022-08-19T01:20:57;20.80;90.90
71084;DHT22;58741;52.672;13.548;2022-08-19T01:23:23;20.80;90.90
71084;DHT22;58741;52.672;13.548;2022-08-19T01:26:09;20.80;91.00
71084;DHT22;58741;52.672;13.548;2022-08-19T01:28:36;20.80;90.90
71084;DHT22;58741;52.672;13.548;2022-08-19T01:31:03;20.80;90.90
71084;DHT22;58741;52.672;13.548;2022-08-19T01:33:29;20.80;90.80
71084;DHT22;58741;52.672;13.548;2022-08-19T01:36:08;20.80;90.90
71084;DHT22;58741;52.672;13.548;2022-08-19T01:38:37;20.70;90.80
71084;DHT22;58741;52.672;13.548;2022-08-19T01:41:03;20.80;91.10
71084;DHT22;58741;52.672;13.548;2022-08-19T01:43:28;20.80;91.10
71084;DHT22;58741;52.672;13.548;2022-08-19T01:45:54;20.70;90.90
71084;DHT22;58741;52.672;13.548;2022-08-19T01:48:19;20.70;90.80
71084;DHT22;58741;52.672;13.548;2022-08-19T01:50:45;20.70;90.90
71084;DHT22;58741;52.672;13.548;2022-08-19T01:53:11;20.70;90.90
71084;DHT22;58741;52.672;13.548;2022-08-19T01:55:39;20.70;91.10
71084;DHT22;58741;52.672;13.548;2022-08-19T01:58:05;20.70;91.10
71084;DHT22;58741;52.672;13.548;2022-08-19T02:00:33;20.70;91.20
71084;DHT22;58741;52.672;13.548;2022-08-19T02:02:58;20.70;91.20
71084;DHT22;58741;52.672;13.548;2022-08-19T02:05:26;20.70;91.20
71084;DHT22;58741;52.672;13.548;2022-08-19T02:07:55;20.70;91.20
71084;DHT22;58741;52.672;13.548;2022-08-19T02:10:21;20.70;91.30
71084;DHT22;58741;52.672;13.548;2022-08-19T02:12:48;20.70;91.40
71084;DHT22;58741;52.672;13.548;2022-08-19T02:16:04;20.70;91.10
71084;DHT22;58741;52.672;13.548;2022-08-19T02:18:30;20.70;91.50
71084;DHT22;58741;52.672;13.548;2022-08-19T02:20:56;20.70;91.60
71084;DHT22;58741;52.672;13.548;2022-08-19T02:25:34;20.60;91.20
71084;DHT22;58741;52.672;13.548;2022-08-19T02:27:59;20.60;91.70
71084;DHT22;58741;52.672;13.548;2022-08-19T02:30:25;20.60;91.80
71084;DHT22;58741;52.672;13.548;2022-08-19T02:32:51;20.60;91.70
71084;DHT22;58741;52.672;13.548;2022-08-19T02:35:18;20.60;91.80
71084;DHT22;58741;52.672;13.548;2022-08-19T02:37:44;20.60;92.00
71084;DHT22;58741;52.672;13.548;2022-08-19T02:40:30;20.60;92.10
71084;DHT22;58741;52.672;13.548;2022-08-19T02:42:59;20.50;92.20
71084;DHT22;58741;52.672;13.548;2022-08-19T02:45:24;20.50;92.20
71084;DHT22;58741;52.672;13.548;2022-08-19T02:47:50;20.50;92.20
71084;DHT22;58741;52.672;13.548;2022-08-19T02:50:15;20.50;92.40
71084;DHT22;58741;52.672;13.548;2022-08-19T02:52:41;20.40;92.20
71084;DHT22;58741;52.672;13.548;2022-08-19T02:55:07;20.40;92.20
71084;DHT22;58741;52.672;13.548;2022-08-19T02:57:32;20.40;92.20
71084;DHT22;58741;52.672;13.548;2022-08-19T02:59:59;20.40;92.20
71084;DHT22;58741;52.672;13.548;2022-08-19T03:02:25;20.40;92.00
71084;DHT22;58741;52.672;13.548;2022-08-19T03:04:50;20.40;92.00
71084;DHT22;58741;52.672;13.548;2022-08-19T03:07:17;20.40;92.30
71084;DHT22;58741;52.672;13.548;2022-08-19T03:09:44;20.40;92.20
71084;DHT22;58741;52.672;13.548;2022-08-19T03:12:09;20.40;92.30
71084;DHT22;58741;52.672;13.548;2022-08-19T03:14:36;20.40;92.40
71084;DHT22;58741;52.672;13.548;2022-08-19T03:17:02;20.30;92.30
71084;DHT22;58741;52.672;13.548;2022-08-19T03:19:29;20.30;92.40
71084;DHT22;58741;52.672;13.548;2022-08-19T03:21:56;20.30;92.30
71084;DHT22;58741;52.672;13.548;2022-08-19T03:24:22;20.30;92.40
71084;DHT22;58741;52.672;13.548;2022-08-19T03:26:51;20.30;92.30
71084;DHT22;58741;52.672;13.548;2022-08-19T03:29:18;20.30;92.30
71084;DHT22;58741;52.672;13.548;2022-08-19T03:31:45;20.30;92.30
71084;DHT22;58741;52.672;13.548;2022-08-19T03:34:13;20.30;92.60
71084;DHT22;58741;52.672;13.548;2022-08-19T03:36:39;20.30;92.40
71084;DHT22;58741;52.672;13.548;2022-08-19T03:39:05;20.20;92.70
71084;DHT22;58741;52.672;13.548;2022-08-19T03:41:33;20.20;92.80
71084;DHT22;58741;52.672;13.548;2022-08-19T03:44:01;20.20;92.70
71084;DHT22;58741;52.672;13.548;2022-08-19T03:46:29;20.20;92.80
71084;DHT22;58741;52.672;13.548;2022-08-19T03:48:56;20.20;92.80
71084;DHT22;58741;52.672;13.548;2022-08-19T03:51:23;20.20;92.90
71084;DHT22;58741;52.672;13.548;2022-08-19T03:53:50;20.10;92.70
71084;DHT22;58741;52.672;13.548;2022-08-19T03:56:16;20.10;92.50
71084;DHT22;58741;52.672;13.548;2022-08-19T03:58:42;20.10;92.60
71084;DHT22;58741;52.672;13.548;2022-08-19T04:01:10;20.10;92.80
71084;DHT22;58741;52.672;13.548;2022-08-19T04:03:37;20.10;92.80
71084;DHT22;58741;52.672;13.548;2022-08-19T04:06:13;20.10;93.00
71084;DHT22;58741;52.672;13.548;2022-08-19T04:08:43;20.10;93.00
71084;DHT22;58741;52.672;13.548;2022-08-19T04:11:12;20.10;93.00
71084;DHT22;58741;52.672;13.548;2022-08-19T04:13:37;20.10;93.00
71084;DHT22;58741;52.672;13.548;2022-08-19T04:16:04;20.10;92.80
71084;DHT22;58741;52.672;13.548;2022-08-19T04:18:30;20.10;93.00
71084;DHT22;58741;52.672;13.548;2022-08-19T04:20:56;20.00;92.90
71084;DHT22;58741;52.672;13.548;2022-08-19T04:23:22;20.10;92.80
71084;DHT22;58741;52.672;13.548;2022-08-19T04:25:48;20.10;92.80
71084;DHT22;58741;52.672;13.548;2022-08-19T04:28:14;20.10;92.90
71084;DHT22;58741;52.672;13.548;2022-08-19T04:30:45;20.10;92.90
71084;DHT22;58741;52.672;13.548;2022-08-19T04:33:12;20.10;93.10
71084;DHT22;58741;52.672;13.548;2022-08-19T04:35:40;20.10;93.00
71084;DHT22;58741;52.672;13.548;2022-08-19T04:38:07;20.10;93.20
71084;DHT22;58741;52.672;13.548;2022-08-19T04:40:33;20.10;93.30
71084;DHT22;58741;52.672;13.548;2022-08-19T04:43:18;20.00;93.40
71084;DHT22;58741;52.672;13.548;2022-08-19T04:45:44;20.00;93.40
71084;DHT22;58741;52.672;13.548;2022-08-19T04:48:11;20.00;93.50
71084;DHT22;58741;52.672;13.548;2022-08-19T04:50:40;20.00;93.30
71084;DHT22;58741;52.672;13.548;2022-08-19T04:53:07;20.00;93.50
71084;DHT22;58741;52.672;13.548;2022-08-19T04:55:32;20.00;93.50
71084;DHT22;58741;52.672;13.548;2022-08-19T04:57:58;20.00;93.70
71084;DHT22;58741;52.672;13.548;2022-08-19T05:00:24;20.00;93.50
71084;DHT22;58741;52.672;13.548;2022-08-19T05:02:49;20.00;93.30
71084;DHT22;58741;52.672;13.548;2022-08-19T05:05:15;20.00;93.30
71084;DHT22;58741;52.672;13.548;2022-08-19T05:07:40;20.00;93.40
71084;DHT22;58741;52.672;13.548;2022-08-19T05:10:07;20.00;93.80
71084;DHT22;58741;52.672;13.548;2022-08-19T05:12:32;20.10;93.60
71084;DHT22;58741;52.672;13.548;2022-08-19T05:14:58;20.10;93.50
71084;DHT22;58741;52.672;13.548;2022-08-19T05:17:25;20.00;93.50
71084;DHT22;58741;52.672;13.548;2022-08-19T05:19:51;20.10;93.60
71084;DHT22;58741;52.672;13.548;2022-08-19T05:22:35;20.10;93.70
71084;DHT22;58741;52.672;13.548;2022-08-19T05:25:15;20.10;93.70
71084;DHT22;58741;52.672;13.548;2022-08-19T05:27:41;20.10;93.70
71084;DHT22;58741;52.672;13.548;2022-08-19T05:30:08;20.10;93.80
71084;DHT22;58741;52.672;13.548;2022-08-19T05:32:34;20.20;94.10
71084;DHT22;58741;52.672;13.548;2022-08-19T05:34:59;20.10;94.20
71084;DHT22;58741;52.672;13.548;2022-08-19T05:37:25;20.20;94.50
71084;DHT22;58741;52.672;13.548;2022-08-19T05:39:52;20.20;94.80
71084;DHT22;58741;52.672;13.548;2022-08-19T05:42:19;20.30;94.80
71084;DHT22;58741;52.672;13.548;2022-08-19T05:44:45;20.30;94.80
71084;DHT22;58741;52.672;13.548;2022-08-19T05:47:13;20.40;94.90
71084;DHT22;58741;52.672;13.548;2022-08-19T05:49:40;20.50;94.80
71084;DHT22;58741;52.672;13.548;2022-08-19T05:52:08;20.50;94.70
71084;DHT22;58741;52.672;13.548;2022-08-19T05:54:34;20.60;94.50
71084;DHT22;58741;52.672;13.548;2022-08-19T05:57:01;20.70;94.30
71084;DHT22;58741;52.672;13.548;2022-08-19T05:59:27;20.70;94.00
71084;DHT22;58741;52.672;13.548;2022-08-19T06:01:54;20.70;94.40
71084;DHT22;58741;52.672;13.548;2022-08-19T06:04:21;20.70;94.40
71084;DHT22;58741;52.672;13.548;2022-08-19T06:06:48;20.80;94.10
71084;DHT22;58741;52.672;13.548;2022-08-19T06:09:14;20.80;94.00
71084;DHT22;58741;52.672;13.548;2022-08-19T06:11:42;20.80;93.80
71084;DHT22;58741;52.672;13.548;2022-08-19T06:14:12;20.90;93.90
71084;DHT22;58741;52.672;13.548;2022-08-19T06:16:40;20.90;93.80
71084;DHT22;58741;52.672;13.548;2022-08-19T06:19:12;20.90;93.80
71084;DHT22;58741;52.672;13.548;2022-08-19T06:21:40;20.90;93.70
71084;DHT22;58741;52.672;13.548;2022-08-19T06:24:08;20.90;93.90
71084;DHT22;58741;52.672;13.548;2022-08-19T06:26:36;20.90;93.60
71084;DHT22;58741;52.672;13.548;2022-08-19T06:29:04;20.90;93.80
71084;DHT22;58741;52.672;13.548;2022-08-19T06:31:33;20.90;93.60
71084;DHT22;58741;52.672;13.548;2022-08-19T06:34:00;20.90;93.70
71084;DHT22;58741;52.672;13.548;2022-08-19T06:36:36;21.00;93.40
71084;DHT22;58741;52.672;13.548;2022-08-19T06:39:04;21.00;93.60
71084;DHT22;58741;52.672;13.548;2022-08-19T06:41:32;21.00;93.70
71084;DHT22;58741;52.672;13.548;2022-08-19T06:43:59;21.10;93.70
71084;DHT22;58741;52.672;13.548;2022-08-19T06:46:25;21.10;94.00
71084;DHT22;58741;52.672;13.548;2022-08-19T06:48:52;21.10;94.20
71084;DHT22;58741;52.672;13.548;2022-08-19T06:51:18;21.20;93.90
71084;DHT22;58741;52.672;13.548;2022-08-19T06:53:48;21.20;93.80
71084;DHT22;58741;52.672;13.548;2022-08-19T06:56:16;21.20;94.00
71084;DHT22;58741;52.672;13.548;2022-08-19T06:58:42;21.30;93.80
71084;DHT22;58741;52.672;13.548;2022-08-19T07:01:09;21.30;94.10
71084;DHT22;58741;52.672;13.548;2022-08-19T07:03:36;21.30;93.70
71084;DHT22;58741;52.672;13.548;2022-08-19T07:06:04;21.40;93.70
71084;DHT22;58741;52.672;13.548;2022-08-19T07:08:30;21.40;93.60
71084;DHT22;58741;52.672;13.548;2022-08-19T07:10:56;21.50;94.10
71084;DHT22;58741;52.672;13.548;2022-08-19T07:13:21;21.50;94.10
71084;DHT22;58741;52.672;13.548;2022-08-19T07:15:47;21.50;93.80
71084;DHT22;58741;52.672;13.548;2022-08-19T07:18:17;21.60;93.80
71084;DHT22;58741;52.672;13.548;2022-08-19T07:20:42;21.60;93.80
71084;DHT22;58741;52.672;13.548;2022-08-19T07:23:08;21.60;93.60
71084;DHT22;58741;52.672;13.548;2022-08-19T07:25:36;21.60;93.70
71084;DHT22;58741;52.672;13.548;2022-08-19T07:28:02;21.70;93.80
71084;DHT22;58741;52.672;13.548;2022-08-19T07:30:28;21.70;93.70
71084;DHT22;58741;52.672;13.548;2022-08-19T07:32:53;21.70;93.70
71084;DHT22;58741;52.672;13.548;2022-08-19T07:35:19;21.80;93.50
71084;DHT22;58741;52.672;13.548;2022-08-19T07:37:45;21.80;93.90
71084;DHT22;58741;52.672;13.548;2022-08-19T07:40:12;21.80;93.60
71084;DHT22;58741;52.672;13.548;2022-08-19T07:42:37;21.80;93.40
71084;DHT22;58741;52.672;13.548;2022-08-19T07:45:05;21.80;93.40
71084;DHT22;58741;52.672;13.548;2022-08-19T07:47:31;21.90;93.60
71084;DHT22;58741;52.672;13.548;2022-08-19T07:49:56;21.90;93.30
71084;DHT22;58741;52.672;13.548;2022-08-19T07:52:22;21.90;93.20
71084;DHT22;58741;52.672;13.548;2022-08-19T07:54:48;21.90;93.20
71084;DHT22;58741;52.672;13.548;2022-08-19T07:57:15;22.00;93.20
71084;DHT22;58741;52.672;13.548;2022-08-19T07:59:40;22.00;93.40
71084;DHT22;58741;52.672;13.548;2022-08-19T08:02:06;22.00;93.20
71084;DHT22;58741;52.672;13.548;2022-08-19T08:04:33;22.00;93.00
71084;DHT22;58741;52.672;13.548;2022-08-19T08:07:17;22.00;93.20
71084;DHT22;58741;52.672;13.548;2022-08-19T08:10:02;22.10;93.10
71084;DHT22;58741;52.672;13.548;2022-08-19T08:12:33;22.10;93.20
71084;DHT22;58741;52.672;13.548;2022-08-19T08:15:01;22.10;93.40
71084;DHT22;58741;52.672;13.548;2022-08-19T08:17:29;22.10;93.40
71084;DHT22;58741;52.672;13.548;2022-08-19T08:19:55;22.10;93.30
71084;DHT22;58741;52.672;13.548;2022-08-19T08:22:21;22.10;93.20
71084;DHT22;58741;52.672;13.548;2022-08-19T08:25:15;22.10;93.20
71084;DHT22;58741;52.672;13.548;2022-08-19T08:27:43;22.10;93.20
71084;DHT22;58741;52.672;13.548;2022-08-19T08:30:15;22.10;93.20
71084;DHT22;58741;52.672;13.548;2022-08-19T08:32:41;22.20;93.10
71084;DHT22;58741;52.672;13.548;2022-08-19T08:35:11;22.20;92.90
71084;DHT22;58741;52.672;13.548;2022-08-19T08:37:37;22.20;92.80
71084;DHT22;58741;52.672;13.548;2022-08-19T08:40:10;22.20;93.00
71084;DHT22;58741;52.672;13.548;2022-08-19T08:42:45;22.30;93.00
71084;DHT22;58741;52.672;13.548;2022-08-19T08:45:17;22.30;93.10
71084;DHT22;58741;52.672;13.548;2022-08-19T08:47:47;22.30;93.00
71084;DHT22;58741;52.672;13.548;2022-08-19T08:52:53;22.40;92.90
71084;DHT22;58741;52.672;13.548;2022-08-19T08:55:24;22.40;92.90
71084;DHT22;58741;52.672;13.548;2022-08-19T08:57:59;22.40;92.80
71084;DHT22;58741;52.672;13.548;2022-08-19T09:00:39;22.40;92.90
71084;DHT22;58741;52.672;13.548;2022-08-19T09:03:23;22.40;93.00
71084;DHT22;58741;52.672;13.548;2022-08-19T09:06:03;22.50;93.20
71084;DHT22;58741;52.672;13.548;2022-08-19T09:11:10;22.60;93.10
71084;DHT22;58741;52.672;13.548;2022-08-19T09:14:02;22.70;93.30
71084;DHT22;58741;52.672;13.548;2022-08-19T09:16:32;22.70;93.50
71084;DHT22;58741;52.672;13.548;2022-08-19T09:19:05;22.80;93.40
71084;DHT22;58741;52.672;13.548;2022-08-19T09:21:32;22.90;93.40
71084;DHT22;58741;52.672;13.548;2022-08-19T09:23:57;23.00;93.30
71084;DHT22;58741;52.672;13.548;2022-08-19T09:26:25;23.10;93.40
71084;DHT22;58741;52.672;13.548;2022-08-19T09:28:52;23.20;93.40
71084;DHT22;58741;52.672;13.548;2022-08-19T09:31:23;23.30;93.10
71084;DHT22;58741;52.672;13.548;2022-08-19T09:33:49;23.40;93.10
71084;DHT22;58741;52.672;13.548;2022-08-19T09:36:16;23.40;92.60
71084;DHT22;58741;52.672;13.548;2022-08-19T09:38:43;23.50;92.40
71084;DHT22;58741;52.672;13.548;2022-08-19T09:41:14;23.60;92.00
71084;DHT22;58741;52.672;13.548;2022-08-19T09:43:41;23.60;91.70
71084;DHT22;58741;52.672;13.548;2022-08-19T09:46:08;23.60;91.90
71084;DHT22;58741;52.672;13.548;2022-08-19T09:48:36;23.70;91.80
71084;DHT22;58741;52.672;13.548;2022-08-19T09:51:06;23.70;91.60
71084;DHT22;58741;52.672;13.548;2022-08-19T09:53:34;23.80;91.20
71084;DHT22;58741;52.672;13.548;2022-08-19T09:56:00;23.80;91.30
71084;DHT22;58741;52.672;13.548;2022-08-19T09:58:25;23.90;91.20
71084;DHT22;58741;52.672;13.548;2022-08-19T10:00:54;23.90;90.80
71084;DHT22;58741;52.672;13.548;2022-08-19T10:03:20;23.90;90.50
71084;DHT22;58741;52.672;13.548;2022-08-19T10:05:45;24.00;90.60
71084;DHT22;58741;52.672;13.548;2022-08-19T10:08:15;24.10;90.40
71084;DHT22;58741;52.672;13.548;2022-08-19T10:10:42;24.10;90.00
71084;DHT22;58741;52.672;13.548;2022-08-19T10:13:09;24.20;89.50
71084;DHT22;58741;52.672;13.548;2022-08-19T10:15:34;24.20;89.30
71084;DHT22;58741;52.672;13.548;2022-08-19T10:18:00;24.20;89.40
71084;DHT22;58741;52.672;13.548;2022-08-19T10:20:25;24.20;89.40
71084;DHT22;58741;52.672;13.548;2022-08-19T10:22:51;24.30;89.50
71084;DHT22;58741;52.672;13.548;2022-08-19T10:25:16;24.40;90.00
71084;DHT22;58741;52.672;13.548;2022-08-19T10:27:42;24.40;89.90
71084;DHT22;58741;52.672;13.548;2022-08-19T10:30:08;24.40;88.80
71084;DHT22;58741;52.672;13.548;2022-08-19T10:32:34;24.50;89.20
71084;DHT22;58741;52.672;13.548;2022-08-19T10:35:01;24.50;88.90
71084;DHT22;58741;52.672;13.548;2022-08-19T10:37:26;24.50;89.20
71084;DHT22;58741;52.672;13.548;2022-08-19T10:39:52;24.50;88.70
71084;DHT22;58741;52.672;13.548;2022-08-19T10:42:18;24.60;89.20
71084;DHT22;58741;52.672;13.548;2022-08-19T10:44:44;24.60;89.00
71084;DHT22;58741;52.672;13.548;2022-08-19T10:47:10;24.60;87.70
71084;DHT22;58741;52.672;13.548;2022-08-19T10:49:36;24.60;88.00
71084;DHT22;58741;52.672;13.548;2022-08-19T10:52:21;24.70;88.00
71084;DHT22;58741;52.672;13.548;2022-08-19T10:55:00;24.70;87.50
71084;DHT22;58741;52.672;13.548;2022-08-19T10:57:44;24.70;87.30
71084;DHT22;58741;52.672;13.548;2022-08-19T11:00:10;24.70;86.90
71084;DHT22;58741;52.672;13.548;2022-08-19T11:02:36;24.70;86.80
71084;DHT22;58741;52.672;13.548;2022-08-19T11:05:01;24.70;86.70
71084;DHT22;58741;52.672;13.548;2022-08-19T11:07:27;24.70;86.90
71084;DHT22;58741;52.672;13.548;2022-08-19T11:09:52;24.60;86.70
71084;DHT22;58741;52.672;13.548;2022-08-19T11:12:18;24.60;87.10
71084;DHT22;58741;52.672;13.548;2022-08-19T11:14:44;24.60;86.70
71084;DHT22;58741;52.672;13.548;2022-08-19T11:17:10;24.60;86.40
71084;DHT22;58741;52.672;13.548;2022-08-19T11:19:39;24.60;86.70
71084;DHT22;58741;52.672;13.548;2022-08-19T11:22:08;24.60;86.40
71084;DHT22;58741;52.672;13.548;2022-08-19T11:24:35;24.60;86.90
71084;DHT22;58741;52.672;13.548;2022-08-19T11:27:04;24.60;86.60
71084;DHT22;58741;52.672;13.548;2022-08-19T11:29:30;24.60;86.00
71084;DHT22;58741;52.672;13.548;2022-08-19T11:31:56;24.60;86.00
71084;DHT22;58741;52.672;13.548;2022-08-19T11:34:24;24.50;86.30
71084;DHT22;58741;52.672;13.548;2022-08-19T11:36:51;24.60;86.40
71084;DHT22;58741;52.672;13.548;2022-08-19T11:39:19;24.60;86.10
71084;DHT22;58741;52.672;13.548;2022-08-19T11:41:45;24.50;86.00
71084;DHT22;58741;52.672;13.548;2022-08-19T11:44:10;24.50;85.90
71084;DHT22;58741;52.672;13.548;2022-08-19T11:46:37;24.40;85.70
71084;DHT22;58741;52.672;13.548;2022-08-19T11:49:03;24.40;85.90
71084;DHT22;58741;52.672;13.548;2022-08-19T11:51:31;24.40;85.50
71084;DHT22;58741;52.672;13.548;2022-08-19T11:53:58;24.30;85.50
71084;DHT22;58741;52.672;13.548;2022-08-19T11:56:25;24.30;85.80
71084;DHT22;58741;52.672;13.548;2022-08-19T11:58:52;24.30;86.10
71084;DHT22;58741;52.672;13.548;2022-08-19T12:01:19;24.20;86.00
71084;DHT22;58741;52.672;13.548;2022-08-19T12:03:47;24.20;86.40
71084;DHT22;58741;52.672;13.548;2022-08-19T12:06:21;24.20;86.80
71084;DHT22;58741;52.672;13.548;2022-08-19T12:08:58;24.30;86.50
71084;DHT22;58741;52.672;13.548;2022-08-19T12:11:25;24.30;86.50
71084;DHT22;58741;52.672;13.548;2022-08-19T12:13:51;24.30;86.60
71084;DHT22;58741;52.672;13.548;2022-08-19T12:16:20;24.30;86.40
71084;DHT22;58741;52.672;13.548;2022-08-19T12:18:46;24.30;86.50
71084;DHT22;58741;52.672;13.548;2022-08-19T12:21:13;24.40;86.40
71084;DHT22;58741;52.672;13.548;2022-08-19T12:23:40;24.40;86.10
71084;DHT22;58741;52.672;13.548;2022-08-19T12:26:06;24.40;86.30
71084;DHT22;58741;52.672;13.548;2022-08-19T12:28:33;24.40;86.60
71084;DHT22;58741;52.672;13.548;2022-08-19T12:30:59;24.40;86.00
71084;DHT22;58741;52.672;13.548;2022-08-19T12:33:24;24.40;85.70
71084;DHT22;58741;52.672;13.548;2022-08-19T12:35:53;24.40;85.90
71084;DHT22;58741;52.672;13.548;2022-08-19T12:38:20;24.40;85.90
71084;DHT22;58741;52.672;13.548;2022-08-19T12:40:49;24.40;86.90
71084;DHT22;58741;52.672;13.548;2022-08-19T12:43:17;24.50;86.90
71084;DHT22;58741;52.672;13.548;2022-08-19T12:45:42;24.60;86.80
71084;DHT22;58741;52.672;13.548;2022-08-19T12:48:09;24.60;86.60
71084;DHT22;58741;52.672;13.548;2022-08-19T12:50:34;24.70;85.90
71084;DHT22;58741;52.672;13.548;2022-08-19T12:53:01;24.70;85.50
71084;DHT22;58741;52.672;13.548;2022-08-19T12:55:26;24.80;85.60
71084;DHT22;58741;52.672;13.548;2022-08-19T12:57:53;24.80;86.00
71084;DHT22;58741;52.672;13.548;2022-08-19T13:00:20;24.90;85.70
71084;DHT22;58741;52.672;13.548;2022-08-19T13:02:47;25.00;85.70
71084;DHT22;58741;52.672;13.548;2022-08-19T13:05:17;25.10;85.50
71084;DHT22;58741;52.672;13.548;2022-08-19T13:07:45;25.20;85.00
71084;DHT22;58741;52.672;13.548;2022-08-19T13:10:12;25.20;83.50
71084;DHT22;58741;52.672;13.548;2022-08-19T13:12:38;25.20;83.50
71084;DHT22;58741;52.672;13.548;2022-08-19T13:15:04;25.20;84.30
71084;DHT22;58741;52.672;13.548;2022-08-19T13:17:30;25.20;84.40
71084;DHT22;58741;52.672;13.548;2022-08-19T13:19:56;25.30;83.80
71084;DHT22;58741;52.672;13.548;2022-08-19T13:22:21;25.40;84.80
71084;DHT22;58741;52.672;13.548;2022-08-19T13:24:47;25.50;84.10
71084;DHT22;58741;52.672;13.548;2022-08-19T13:27:13;25.50;83.50
71084;DHT22;58741;52.672;13.548;2022-08-19T13:29:40;25.60;83.30
71084;DHT22;58741;52.672;13.548;2022-08-19T13:32:24;25.80;84.10
71084;DHT22;58741;52.672;13.548;2022-08-19T13:35:08;25.80;82.10
71084;DHT22;58741;52.672;13.548;2022-08-19T13:37:34;25.90;82.10
71084;DHT22;58741;52.672;13.548;2022-08-19T13:40:18;25.90;81.40
71084;DHT22;58741;52.672;13.548;2022-08-19T13:42:50;25.90;81.00
71084;DHT22;58741;52.672;13.548;2022-08-19T13:45:17;25.90;81.50
71084;DHT22;58741;52.672;13.548;2022-08-19T13:47:49;25.90;81.30
71084;DHT22;58741;52.672;13.548;2022-08-19T13:50:19;25.80;80.80
71084;DHT22;58741;52.672;13.548;2022-08-19T13:52:46;25.80;80.50
71084;DHT22;58741;52.672;13.548;2022-08-19T13:55:13;25.80;80.60
71084;DHT22;58741;52.672;13.548;2022-08-19T13:57:39;25.70;80.40
71084;DHT22;58741;52.672;13.548;2022-08-19T14:00:09;25.70;80.70
71084;DHT22;58741;52.672;13.548;2022-08-19T14:02:36;25.70;80.90
71084;DHT22;58741;52.672;13.548;2022-08-19T14:05:03;25.60;81.00
71084;DHT22;58741;52.672;13.548;2022-08-19T14:07:29;25.60;80.90
71084;DHT22;58741;52.672;13.548;2022-08-19T14:09:54;25.60;80.20
71084;DHT22;58741;52.672;13.548;2022-08-19T14:12:20;25.50;80.50
71084;DHT22;58741;52.672;13.548;2022-08-19T14:14:46;25.50;80.90
71084;DHT22;58741;52.672;13.548;2022-08-19T14:17:12;25.50;80.60
71084;DHT22;58741;52.672;13.548;2022-08-19T14:19:37;25.50;80.60
71084;DHT22;58741;52.672;13.548;2022-08-19T14:22:03;25.50;81.20
71084;DHT22;58741;52.672;13.548;2022-08-19T14:24:29;25.50;81.50
71084;DHT22;58741;52.672;13.548;2022-08-19T14:26:55;25.50;80.80
71084;DHT22;58741;52.672;13.548;2022-08-19T14:29:22;25.50;81.10
71084;DHT22;58741;52.672;13.548;2022-08-19T14:31:47;25.50;80.30
71084;DHT22;58741;52.672;13.548;2022-08-19T14:34:13;25.50;80.40
71084;DHT22;58741;52.672;13.548;2022-08-19T14:36:39;25.40;80.40
71084;DHT22;58741;52.672;13.548;2022-08-19T14:39:04;25.40;80.80
71084;DHT22;58741;52.672;13.548;2022-08-19T14:41:30;25.40;81.00
71084;DHT22;58741;52.672;13.548;2022-08-19T14:43:56;25.40;80.80
71084;DHT22;58741;52.672;13.548;2022-08-19T14:46:25;25.30;80.40
71084;DHT22;58741;52.672;13.548;2022-08-19T14:48:51;25.30;80.50
71084;DHT22;58741;52.672;13.548;2022-08-19T14:51:17;25.30;80.50
71084;DHT22;58741;52.672;13.548;2022-08-19T14:53:44;25.30;81.00
71084;DHT22;58741;52.672;13.548;2022-08-19T14:56:12;25.30;80.50
71084;DHT22;58741;52.672;13.548;2022-08-19T14:58:39;25.30;80.50
71084;DHT22;58741;52.672;13.548;2022-08-19T15:01:09;25.20;80.70
71084;DHT22;58741;52.672;13.548;2022-08-19T15:03:34;25.20;81.20
71084;DHT22;58741;52.672;13.548;2022-08-19T15:06:01;25.30;81.30
71084;DHT22;58741;52.672;13.548;2022-08-19T15:08:29;25.30;80.40
71084;DHT22;58741;52.672;13.548;2022-08-19T15:10:56;25.30;80.80
71084;DHT22;58741;52.672;13.548;2022-08-19T15:13:22;25.30;80.40
71084;DHT22;58741;52.672;13.548;2022-08-19T15:15:48;25.20;80.60
71084;DHT22;58741;52.672;13.548;2022-08-19T15:18:13;25.20;80.50
71084;DHT22;58741;52.672;13.548;2022-08-19T15:20:39;25.20;80.40
71084;DHT22;58741;52.672;13.548;2022-08-19T15:23:06;25.20;80.60
71084;DHT22;58741;52.672;13.548;2022-08-19T15:25:32;25.10;80.60
71084;DHT22;58741;52.672;13.548;2022-08-19T15:27:58;25.00;80.00